createdAt,value
2022-12-10T00:01:08.277Z,16.67
2022-12-10T00:04:06.932Z,16.67
2022-12-10T00:07:05.237Z,15.10
2022-12-10T00:10:07.614Z,9.80
2022-12-10T00:13:08.719Z,8.93
2022-12-10T00:16:09.962Z,8.57
2022-12-10T00:19:08.421Z,7.57
2022-12-10T00:22:06.511Z,8.57
2022-12-10T00:25:04.817Z,7.20
2022-12-10T00:28:02.787Z,7.03
2022-12-10T00:31:07.538Z,6.77
2022-12-10T00:34:08.690Z,8.67
2022-12-10T00:37:06.593Z,8.97
2022-12-10T00:40:05.084Z,9.07
2022-12-10T00:43:02.994Z,12.53
2022-12-10T00:46:00.888Z,12.70
2022-12-10T00:49:00.027Z,12.73
2022-12-10T00:51:58.015Z,14.27
2022-12-10T00:54:55.854Z,16.67
2022-12-10T00:57:53.696Z,17.30
2022-12-10T01:00:51.874Z,15.93
2022-12-10T01:03:51.994Z,16.53
2022-12-10T01:06:53.362Z,12.37
2022-12-10T01:09:51.229Z,12.47
2022-12-10T01:12:49.444Z,14.13
2022-12-10T01:15:47.287Z,11.33
2022-12-10T01:18:45.247Z,8.73
2022-12-10T01:21:43.104Z,10.17
2022-12-10T01:24:41.260Z,9.37
2022-12-10T01:27:39.104Z,11.17
2022-12-10T01:30:36.872Z,10.63
2022-12-10T01:33:35.650Z,12.43
2022-12-10T01:36:36.857Z,12.83
2022-12-10T01:39:34.575Z,11.10
2022-12-10T01:42:32.399Z,11.90
2022-12-10T01:45:30.421Z,12.70
2022-12-10T01:48:28.278Z,12.60
2022-12-10T01:51:28.938Z,14.23
2022-12-10T01:54:32.453Z,13.70
2022-12-10T01:57:31.035Z,13.23
2022-12-10T02:00:28.994Z,12.23
2022-12-10T02:03:40.913Z,12.60
2022-12-10T02:06:57.991Z,13.17
2022-12-10T02:10:11.014Z,12.63
2022-12-10T02:13:19.345Z,8.90
2022-12-10T02:16:21.704Z,14.27
2022-12-10T02:19:41.730Z,16.48
2022-12-10T02:22:46.066Z,16.73
2022-12-10T02:25:51.912Z,17.93
2022-12-10T02:29:19.466Z,19.60
2022-12-10T02:32:27.585Z,19.17
2022-12-10T02:35:29.112Z,19.20
2022-12-10T02:38:37.956Z,20.27
2022-12-10T02:41:42.066Z,20.53
2022-12-10T02:44:41.888Z,20.93
2022-12-10T02:47:41.435Z,23.30
2022-12-10T02:50:39.295Z,19.00
2022-12-10T02:53:44.347Z,18.37
2022-12-10T02:56:53.684Z,16.33
2022-12-10T03:00:06.981Z,20.23
2022-12-10T03:03:26.000Z,18.53
2022-12-10T03:06:31.995Z,18.13
2022-12-10T03:09:39.660Z,21.97
2022-12-10T03:12:45.509Z,19.90
2022-12-10T03:15:44.714Z,17.30
2022-12-10T03:18:42.886Z,18.63
2022-12-10T03:21:42.844Z,20.40
2022-12-10T03:24:42.864Z,16.70
2022-12-10T03:27:42.818Z,17.73
2022-12-10T03:30:43.100Z,18.37
2022-12-10T03:33:42.083Z,18.63
2022-12-10T03:36:41.290Z,19.77
2022-12-10T03:39:39.593Z,20.67
2022-12-10T03:42:39.193Z,21.27
2022-12-10T03:45:37.235Z,21.73
2022-12-10T03:48:35.000Z,20.10
2022-12-10T03:51:33.153Z,21.93
2022-12-10T03:54:31.057Z,22.43
2022-12-10T03:57:29.275Z,22.83
2022-12-10T04:00:27.238Z,21.20
2022-12-10T04:03:25.379Z,22.63
2022-12-10T04:06:23.453Z,24.27
2022-12-10T04:09:21.741Z,25.13
2022-12-10T04:12:19.541Z,25.07
2022-12-10T04:15:32.988Z,23.67
2022-12-10T04:18:30.850Z,23.57
2022-12-10T04:21:45.619Z,33.80
2022-12-10T04:24:59.024Z,28.93
2022-12-10T04:27:57.007Z,27.50
2022-12-10T04:30:55.038Z,27.17
2022-12-10T04:33:52.884Z,29.37
2022-12-10T04:36:51.570Z,35.60
2022-12-10T04:39:51.962Z,32.57
2022-12-10T04:42:49.807Z,28.50
2022-12-10T04:45:47.963Z,30.83
2022-12-10T04:48:46.114Z,31.67
2022-12-10T04:51:44.748Z,33.67
2022-12-10T04:54:43.468Z,31.10
2022-12-10T04:57:41.587Z,27.23
2022-12-10T05:00:39.748Z,34.97
2022-12-10T05:03:37.976Z,31.00
2022-12-10T05:06:36.232Z,33.30
2022-12-10T05:09:34.181Z,27.73
2022-12-10T05:12:31.997Z,27.00
2022-12-10T05:15:29.999Z,31.40
2022-12-10T05:18:27.782Z,32.57
2022-12-10T05:21:47.710Z,30.67
2022-12-10T05:24:45.472Z,31.57
2022-12-10T05:27:43.284Z,29.57
2022-12-10T05:30:41.421Z,33.13
2022-12-10T05:33:39.429Z,29.57
2022-12-10T05:36:37.396Z,32.10
2022-12-10T05:39:36.169Z,29.10
2022-12-10T05:42:34.019Z,32.50
2022-12-10T05:45:34.628Z,32.50
2022-12-10T05:48:33.081Z,31.50
2022-12-10T05:51:33.944Z,30.43
2022-12-10T05:54:32.241Z,31.43
2022-12-10T05:57:30.100Z,27.40
2022-12-10T06:00:30.128Z,29.30
2022-12-10T06:03:29.538Z,31.07
2022-12-10T06:06:30.883Z,30.33
2022-12-10T06:09:28.598Z,30.57
2022-12-10T06:12:27.168Z,32.83
2022-12-10T06:15:24.958Z,31.40
2022-12-10T06:18:23.517Z,29.53
2022-12-10T06:21:21.988Z,29.57
2022-12-10T06:24:20.135Z,28.27
2022-12-10T06:27:18.413Z,29.63
2022-12-10T06:30:16.812Z,30.50
2022-12-10T06:33:14.751Z,31.83
2022-12-10T06:36:14.507Z,30.03
2022-12-10T06:39:12.504Z,28.60
2022-12-10T06:42:10.689Z,34.67
2022-12-10T06:45:09.599Z,32.03
2022-12-10T06:48:07.870Z,37.37
2022-12-10T06:51:06.625Z,35.40
2022-12-10T06:54:05.512Z,34.90
2022-12-10T06:57:03.560Z,37.47
2022-12-10T07:00:01.400Z,35.03
2022-12-10T07:03:00.431Z,36.17
2022-12-10T07:06:01.131Z,39.93
2022-12-10T07:08:59.552Z,31.93
2022-12-10T07:11:57.911Z,29.70
2022-12-10T07:14:55.765Z,28.40
2022-12-10T07:17:53.975Z,33.63
2022-12-10T07:20:52.090Z,33.93
2022-12-10T07:23:50.929Z,33.10
2022-12-10T07:26:49.701Z,34.93
2022-12-10T07:29:47.952Z,35.53
2022-12-10T07:32:45.934Z,39.07
2022-12-10T07:35:49.051Z,33.83
2022-12-10T07:38:48.307Z,40.63
2022-12-10T07:41:49.397Z,41.27
2022-12-10T07:44:49.231Z,42.23
2022-12-10T07:47:47.519Z,49.70
2022-12-10T07:50:45.708Z,42.03
2022-12-10T07:53:44.803Z,50.87
2022-12-10T07:56:44.923Z,50.13
2022-12-10T07:59:43.295Z,54.53
2022-12-10T08:02:41.467Z,53.43
2022-12-10T08:05:39.741Z,57.13
2022-12-10T08:08:39.377Z,54.93
2022-12-10T08:11:37.564Z,55.57
2022-12-10T08:14:35.741Z,50.83
2022-12-10T08:17:36.524Z,57.63
2022-12-10T08:20:35.278Z,57.43
2022-12-10T08:23:33.408Z,65.77
2022-12-10T08:26:34.435Z,62.53
2022-12-10T08:29:32.509Z,65.07
2022-12-10T08:32:30.493Z,62.83
2022-12-10T08:35:28.427Z,66.30
2022-12-10T08:38:26.275Z,63.07
2022-12-10T08:41:24.740Z,62.97
2022-12-10T08:44:22.733Z,63.13
2022-12-10T08:47:20.572Z,57.77
2022-12-10T08:50:18.504Z,57.83
2022-12-10T08:53:16.448Z,58.17
2022-12-10T08:56:14.630Z,53.37
2022-12-10T08:59:13.541Z,51.97
2022-12-10T09:02:13.303Z,50.33
2022-12-10T09:05:11.363Z,52.80
2022-12-10T09:08:09.217Z,51.97
2022-12-10T09:11:14.708Z,48.00
2022-12-10T09:14:12.416Z,49.83
2022-12-10T09:17:11.286Z,48.50
2022-12-10T09:20:09.914Z,45.83
2022-12-10T09:23:07.926Z,53.03
2022-12-10T09:26:12.401Z,48.17
2022-12-10T09:29:13.474Z,52.43
2022-12-10T09:32:11.944Z,45.47
2022-12-10T09:35:10.179Z,46.63
2022-12-10T09:38:09.195Z,46.93
2022-12-10T09:41:30.010Z,46.97
2022-12-10T09:44:43.277Z,50.03
2022-12-10T09:48:11.772Z,43.93
2022-12-10T09:51:25.821Z,44.63
2022-12-10T09:54:31.221Z,48.30
2022-12-10T09:57:35.388Z,45.40
2022-12-10T10:00:40.002Z,46.50
2022-12-10T10:03:42.126Z,47.53
2022-12-10T10:06:42.311Z,46.60
2022-12-10T10:09:42.987Z,48.33
2022-12-10T10:12:41.983Z,48.37
2022-12-10T10:15:43.247Z,43.80
2022-12-10T10:18:46.115Z,44.00
2022-12-10T10:21:47.223Z,43.80
2022-12-10T10:24:47.121Z,44.80
2022-12-10T10:27:45.435Z,43.70
2022-12-10T10:30:46.004Z,47.23
2022-12-10T10:34:01.521Z,49.07
2022-12-10T10:36:59.664Z,50.63
2022-12-10T10:39:58.696Z,46.67
2022-12-10T10:42:59.439Z,50.77
2022-12-10T10:46:03.593Z,48.60
2022-12-10T10:49:17.143Z,46.00
2022-12-10T10:52:18.314Z,45.83
2022-12-10T10:55:37.772Z,48.13
2022-12-10T10:58:36.292Z,44.37
2022-12-10T11:01:50.988Z,45.27
2022-12-10T11:04:53.222Z,47.90
2022-12-10T11:08:01.914Z,50.73
2022-12-10T11:11:06.619Z,49.57
2022-12-10T11:14:28.647Z,49.77
2022-12-10T11:17:28.229Z,44.67
2022-12-10T11:20:37.417Z,43.80
2022-12-10T11:23:42.321Z,45.93
2022-12-10T11:27:10.900Z,45.37
2022-12-10T11:30:19.181Z,42.50
2022-12-10T11:33:29.637Z,47.30
2022-12-10T11:36:48.204Z,45.57
2022-12-10T11:40:11.642Z,43.20
2022-12-10T11:43:29.833Z,48.57
2022-12-10T11:46:44.746Z,48.67
2022-12-10T11:49:57.396Z,46.63
2022-12-10T11:53:18.969Z,43.83
2022-12-10T11:56:37.306Z,44.30
2022-12-10T12:00:08.715Z,43.97
2022-12-10T12:03:34.161Z,42.38
2022-12-10T12:06:52.381Z,40.70
2022-12-10T12:10:25.272Z,42.07
2022-12-10T12:13:29.916Z,40.23
2022-12-10T12:16:37.247Z,41.13
2022-12-10T12:19:54.934Z,39.90
2022-12-10T12:22:59.539Z,39.47
2022-12-10T12:26:05.769Z,39.63
2022-12-10T12:29:31.846Z,38.63
2022-12-10T12:32:54.018Z,37.90
2022-12-10T12:36:06.826Z,40.20
2022-12-10T12:39:26.307Z,39.50
2022-12-10T12:42:42.828Z,41.83
2022-12-10T12:45:43.531Z,38.57
2022-12-10T12:49:02.838Z,41.03
2022-12-10T12:52:22.880Z,39.63
2022-12-10T12:55:40.861Z,39.73
2022-12-10T12:59:03.480Z,35.63
2022-12-10T13:05:14.220Z,34.97
2022-12-10T13:08:29.597Z,32.47
2022-12-10T13:11:34.217Z,38.40
2022-12-10T13:14:38.828Z,40.57
2022-12-10T13:17:39.121Z,37.90
2022-12-10T13:20:50.907Z,36.03
2022-12-10T13:23:54.065Z,34.37
2022-12-10T13:27:21.533Z,31.08
2022-12-10T13:30:38.041Z,28.47
2022-12-10T13:34:05.977Z,28.47
2022-12-10T13:37:15.501Z,27.23
2022-12-10T13:40:25.736Z,27.73
2022-12-10T13:43:45.583Z,34.13
2022-12-10T13:47:00.822Z,29.60
2022-12-10T13:50:02.046Z,33.57
2022-12-10T13:53:25.608Z,32.67
2022-12-10T13:56:32.232Z,34.40
2022-12-10T13:59:44.844Z,30.47
2022-12-10T14:03:10.531Z,35.03
2022-12-10T14:06:17.458Z,34.47
2022-12-10T14:09:26.596Z,35.07
2022-12-10T14:12:30.970Z,36.00
2022-12-10T14:15:29.698Z,33.13
2022-12-10T14:18:30.765Z,33.43
2022-12-10T14:21:35.774Z,36.00
2022-12-10T14:24:38.778Z,39.07
2022-12-10T14:27:38.633Z,38.80
2022-12-10T14:30:46.657Z,36.83
2022-12-10T14:33:47.432Z,35.30
2022-12-10T14:36:49.342Z,33.37
2022-12-10T14:39:47.169Z,34.00
2022-12-10T14:42:45.126Z,34.40
2022-12-10T14:46:00.067Z,36.10
2022-12-10T14:48:58.013Z,35.63
2022-12-10T14:51:58.068Z,35.73
2022-12-10T14:54:55.844Z,35.20
2022-12-10T14:57:58.765Z,35.80
2022-12-10T15:00:57.071Z,37.80
2022-12-10T15:03:56.181Z,40.50
2022-12-10T15:06:58.769Z,38.53
2022-12-10T15:09:56.959Z,35.80
2022-12-10T15:12:56.613Z,38.10
2022-12-10T15:15:55.490Z,33.10
2022-12-10T15:18:56.597Z,32.27
2022-12-10T15:22:03.955Z,35.40
2022-12-10T15:25:21.420Z,36.70
2022-12-10T15:28:30.536Z,32.60
2022-12-10T15:31:33.314Z,29.93
2022-12-10T15:34:35.300Z,33.70
2022-12-10T15:37:36.939Z,31.30
2022-12-10T15:40:37.777Z,32.73
2022-12-10T15:43:36.384Z,31.77
2022-12-10T15:46:34.747Z,31.77
2022-12-10T15:49:33.791Z,33.40
2022-12-10T15:52:33.449Z,29.53
2022-12-10T15:55:31.469Z,33.37
2022-12-10T15:58:29.947Z,27.97
2022-12-10T16:01:28.244Z,26.07
2022-12-10T16:04:26.059Z,26.70
2022-12-10T16:07:24.037Z,25.50
2022-12-10T16:10:24.414Z,24.77
2022-12-10T16:13:27.596Z,25.10
2022-12-10T16:16:26.694Z,22.33
2022-12-10T16:19:24.638Z,25.10
2022-12-10T16:22:23.087Z,24.23
2022-12-10T16:25:21.858Z,24.97
2022-12-10T16:28:22.622Z,22.13
2022-12-10T16:31:22.719Z,24.53
2022-12-10T16:34:20.754Z,23.57
2022-12-10T16:37:18.750Z,21.57
2022-12-10T16:40:18.436Z,23.17
2022-12-10T16:43:19.756Z,23.10
2022-12-10T16:46:18.204Z,21.93
2022-12-10T16:49:16.312Z,20.27
2022-12-10T16:52:16.753Z,22.40
2022-12-10T16:55:18.595Z,17.87
2022-12-10T16:58:18.099Z,17.10
2022-12-10T17:01:22.391Z,16.00
2022-12-10T17:04:20.410Z,17.97
2022-12-10T17:07:18.280Z,18.23
2022-12-10T17:10:16.291Z,17.20
2022-12-10T17:13:15.907Z,17.10
2022-12-10T17:16:20.194Z,16.07
2022-12-10T17:19:18.326Z,15.70
2022-12-10T17:22:18.486Z,16.70
2022-12-10T17:25:17.093Z,15.27
2022-12-10T17:28:19.537Z,16.47
2022-12-10T17:31:17.512Z,16.08
2022-12-10T17:34:17.434Z,17.17
2022-12-10T17:37:18.247Z,17.23
2022-12-10T17:40:18.523Z,13.67
2022-12-10T17:43:16.616Z,13.37
2022-12-10T17:46:14.913Z,14.70
2022-12-10T17:49:15.846Z,13.43
2022-12-10T17:52:13.966Z,13.67
2022-12-10T17:55:11.993Z,13.83
2022-12-10T17:58:11.185Z,16.43
2022-12-10T18:01:10.954Z,16.43
2022-12-10T18:04:08.728Z,18.13
2022-12-10T18:07:16.357Z,20.30
2022-12-10T18:10:19.577Z,21.93
2022-12-10T18:16:18.373Z,23.67
2022-12-10T18:19:17.433Z,27.10
2022-12-10T18:22:15.407Z,22.87
2022-12-10T18:25:17.749Z,20.23
2022-12-10T18:28:47.186Z,16.40
2022-12-10T18:31:47.426Z,14.67
2022-12-10T18:34:46.303Z,15.50
2022-12-10T18:37:45.072Z,14.47
2022-12-10T18:40:43.449Z,11.30
2022-12-10T18:43:41.475Z,12.60
2022-12-10T18:46:40.763Z,11.07
2022-12-10T18:49:39.371Z,10.03
2022-12-10T18:52:37.106Z,8.60
2022-12-10T18:55:35.048Z,9.60
2022-12-10T18:58:33.206Z,9.67
2022-12-10T19:01:31.627Z,9.97
2022-12-10T19:04:29.564Z,7.30
2022-12-10T19:07:28.485Z,9.70
2022-12-10T19:10:27.040Z,12.77
2022-12-10T19:13:25.193Z,14.37
2022-12-10T19:16:25.564Z,11.87
2022-12-10T19:19:23.368Z,12.63
2022-12-10T19:22:22.140Z,13.50
2022-12-10T19:25:20.536Z,14.93
2022-12-10T19:28:19.798Z,14.43
2022-12-10T19:31:17.877Z,24.03
2022-12-10T19:34:17.336Z,25.93
2022-12-10T19:37:16.273Z,18.27
2022-12-10T19:40:25.419Z,14.00
2022-12-10T19:43:23.319Z,11.20
2022-12-10T19:46:25.363Z,9.93
2022-12-10T19:49:23.251Z,8.20
2022-12-10T19:52:21.042Z,9.03
2022-12-10T19:55:20.195Z,8.23
2022-12-10T19:58:18.469Z,8.60
2022-12-10T20:01:16.688Z,10.53
2022-12-10T20:04:16.131Z,10.43
2022-12-10T20:07:14.087Z,8.83
2022-12-10T20:10:20.960Z,8.50
2022-12-10T20:13:18.770Z,10.13
2022-12-10T20:16:20.525Z,16.23
2022-12-10T20:19:20.862Z,15.50
2022-12-10T20:22:19.381Z,19.87
2022-12-10T20:25:18.477Z,12.80
2022-12-10T20:28:18.106Z,17.77
2022-12-10T20:31:16.566Z,12.17
2022-12-10T20:34:14.804Z,14.10
2022-12-10T20:37:13.716Z,17.23
2022-12-10T20:40:33.391Z,19.97
2022-12-10T20:43:31.557Z,14.80
2022-12-10T20:46:35.254Z,11.97
2022-12-10T20:49:32.973Z,12.13
2022-12-10T20:52:30.889Z,11.23
2022-12-10T20:55:28.735Z,10.20
2022-12-10T20:58:26.608Z,10.40
2022-12-10T21:01:24.669Z,7.33
2022-12-10T21:04:22.748Z,9.63
2022-12-10T21:07:20.489Z,7.60
2022-12-10T21:10:36.627Z,6.23
2022-12-10T21:13:34.660Z,6.30
2022-12-10T21:16:32.689Z,7.13
2022-12-10T21:19:32.938Z,14.43
2022-12-10T21:22:31.823Z,7.37
2022-12-10T21:25:33.455Z,8.53
2022-12-10T21:28:31.379Z,9.33
2022-12-10T21:31:29.519Z,10.10
2022-12-10T21:34:27.515Z,11.37
2022-12-10T21:37:25.346Z,13.63
2022-12-10T21:40:23.156Z,13.07
2022-12-10T21:43:27.773Z,11.30
2022-12-10T21:46:25.812Z,12.33
2022-12-10T21:49:24.093Z,10.73
2022-12-10T21:52:21.930Z,15.30
2022-12-10T21:55:24.017Z,14.10
2022-12-10T21:58:24.520Z,13.57
2022-12-10T22:01:22.514Z,13.37
2022-12-10T22:04:20.257Z,10.93
2022-12-10T22:07:18.674Z,8.60
2022-12-10T22:10:17.154Z,7.97
2022-12-10T22:13:15.335Z,7.63
2022-12-10T22:16:13.302Z,9.57
2022-12-10T22:19:11.775Z,8.27
2022-12-10T22:22:09.512Z,8.53
2022-12-10T22:25:08.063Z,9.43
2022-12-10T22:28:06.165Z,8.83
2022-12-10T22:31:09.157Z,8.47
2022-12-10T22:34:07.072Z,8.98
2022-12-10T22:37:04.893Z,7.97
2022-12-10T22:40:05.899Z,9.13
2022-12-10T22:43:20.551Z,11.40
2022-12-10T22:46:22.086Z,8.50
2022-12-10T22:49:20.160Z,9.03
2022-12-10T22:52:17.869Z,9.90
2022-12-10T22:55:15.880Z,12.63
2022-12-10T22:58:13.870Z,7.30
2022-12-10T23:01:20.940Z,11.10
2022-12-10T23:04:18.814Z,9.23
2022-12-10T23:07:17.365Z,7.43
2022-12-10T23:10:15.775Z,10.67
2022-12-10T23:13:17.160Z,8.43
2022-12-10T23:16:18.013Z,8.03
2022-12-10T23:19:15.999Z,8.67
2022-12-10T23:22:13.700Z,7.63
2022-12-10T23:25:12.945Z,9.57
2022-12-10T23:28:12.439Z,9.47
2022-12-10T23:31:11.881Z,8.53
2022-12-10T23:34:10.067Z,9.30
2022-12-10T23:37:08.551Z,7.43
2022-12-10T23:40:08.182Z,8.13
2022-12-10T23:43:06.116Z,7.23
2022-12-10T23:46:04.466Z,8.13
2022-12-10T23:49:02.518Z,6.03
2022-12-10T23:52:04.890Z,8.83
2022-12-10T23:55:07.841Z,8.13
2022-12-10T23:58:05.821Z,8.07
